createdAt,value
2022-07-29T00:00:55.398Z,286.65
2022-07-29T00:01:55.608Z,292.53
2022-07-29T00:02:55.709Z,289.94
2022-07-29T00:03:55.845Z,287.15
2022-07-29T00:04:55.932Z,289.18
2022-07-29T00:05:56.070Z,289.69
2022-07-29T00:06:56.191Z,282.94
2022-07-29T00:07:56.531Z,280.52
2022-07-29T00:08:56.399Z,283.68
2022-07-29T00:09:56.548Z,286.65
2022-07-29T00:10:56.718Z,285.90
2022-07-29T00:11:56.817Z,283.43
2022-07-29T00:12:57.063Z,280.29
2022-07-29T00:13:57.049Z,272.83
2022-07-29T00:14:57.147Z,271.25
2022-07-29T00:15:57.260Z,260.89
2022-07-29T00:16:58.339Z,254.62
2022-07-29T00:17:57.628Z,253.24
2022-07-29T00:19:00.658Z,254.03
2022-07-29T00:19:57.706Z,258.63
2022-07-29T00:20:57.876Z,259.04
2022-07-29T00:21:57.968Z,259.86
2022-07-29T00:22:58.187Z,263.83
2022-07-29T00:23:58.224Z,258.02
2022-07-29T00:24:58.358Z,258.02
2022-07-29T00:25:58.511Z,256.41
2022-07-29T00:26:58.604Z,244.93
2022-07-29T00:27:58.716Z,239.39
2022-07-29T00:29:31.880Z,242.39
2022-07-29T00:29:59.917Z,246.40
2022-07-29T00:30:59.026Z,250.54
2022-07-29T00:31:59.227Z,251.69
2022-07-29T00:32:59.246Z,242.57
2022-07-29T00:33:59.649Z,249.96
2022-07-29T00:34:59.532Z,251.88
2022-07-29T00:35:59.634Z,253.44
2022-07-29T00:36:59.755Z,253.44
2022-07-29T00:37:59.874Z,258.84
2022-07-29T00:39:00.021Z,265.11
2022-07-29T00:40:00.189Z,268.58
2022-07-29T00:41:00.275Z,265.33
2022-07-29T00:42:00.363Z,264.47
2022-07-29T00:43:00.528Z,263.20
2022-07-29T00:44:00.578Z,264.26
2022-07-29T00:45:00.843Z,265.33
2022-07-29T00:46:00.783Z,260.27
2022-07-29T00:47:00.933Z,256.81
2022-07-29T00:48:00.984Z,256.41
2022-07-29T00:49:01.128Z,249.77
2022-07-29T00:50:01.363Z,247.70
2022-07-29T00:51:01.335Z,240.62
2022-07-29T00:52:01.443Z,253.44
2022-07-29T00:53:01.692Z,258.84
2022-07-29T00:54:01.684Z,263.20
2022-07-29T00:55:07.986Z,270.13
2022-07-29T00:56:02.921Z,277.21
2022-07-29T00:57:01.994Z,277.67
2022-07-29T00:58:02.201Z,281.73
2022-07-29T00:59:02.253Z,283.92
2022-07-29T01:00:02.331Z,283.19
2022-07-29T01:01:02.671Z,285.40
2022-07-29T01:02:02.689Z,286.40
2022-07-29T01:03:02.740Z,286.15
2022-07-29T01:04:02.939Z,286.15
2022-07-29T01:05:02.969Z,282.94
2022-07-29T01:06:03.310Z,280.52
2022-07-29T01:07:03.242Z,276.04
2022-07-29T01:08:03.367Z,270.13
2022-07-29T01:09:03.505Z,263.41
2022-07-29T01:10:03.682Z,258.23
2022-07-29T01:11:03.848Z,252.27
2022-07-29T01:12:03.891Z,252.66
2022-07-29T01:13:04.038Z,250.92
2022-07-29T01:14:04.188Z,247.70
2022-07-29T01:15:04.307Z,242.21
2022-07-29T01:16:04.521Z,235.44
2022-07-29T01:17:04.488Z,231.12
2022-07-29T01:18:04.637Z,229.35
2022-07-29T01:19:04.808Z,228.39
2022-07-29T01:20:04.929Z,230.80
2022-07-29T01:21:05.007Z,234.09
2022-07-29T01:22:05.137Z,234.93
2022-07-29T01:23:05.296Z,232.76
2022-07-29T01:24:05.505Z,228.23
2022-07-29T01:25:05.576Z,224.33
2022-07-29T01:26:05.893Z,220.12
2022-07-29T01:27:05.786Z,216.77
2022-07-29T01:28:05.877Z,212.83
2022-07-29T01:29:07.591Z,209.71
2022-07-29T01:30:06.357Z,208.90
2022-07-29T01:31:06.287Z,208.77
2022-07-29T01:32:06.491Z,208.77
2022-07-29T01:33:06.517Z,212.70
2022-07-29T01:34:06.657Z,212.42
2022-07-29T01:35:06.855Z,210.65
2022-07-29T01:36:06.887Z,208.24
2022-07-29T01:37:06.984Z,203.84
2022-07-29T01:38:07.087Z,202.09
2022-07-29T01:39:07.234Z,199.63
2022-07-29T01:40:07.452Z,200.36
2022-07-29T01:41:07.552Z,202.46
2022-07-29T01:42:07.522Z,206.02
2022-07-29T01:43:07.693Z,201.84
2022-07-29T01:44:07.772Z,197.23
2022-07-29T01:45:07.933Z,195.23
2022-07-29T01:46:08.187Z,186.47
2022-07-29T01:47:08.234Z,186.36
2022-07-29T01:48:08.262Z,181.38
2022-07-29T01:49:08.459Z,181.98
2022-07-29T01:50:08.532Z,180.60
2022-07-29T01:51:08.682Z,180.60
2022-07-29T01:52:08.745Z,182.18
2022-07-29T01:53:08.889Z,181.58
2022-07-29T01:54:08.983Z,179.24
2022-07-29T01:55:09.093Z,176.21
2022-07-29T01:56:09.301Z,175.47
2022-07-29T01:57:09.336Z,173.83
2022-07-29T01:58:09.414Z,177.53
2022-07-29T01:59:09.596Z,174.37
2022-07-29T02:00:09.680Z,176.03
2022-07-29T02:01:09.882Z,174.92
2022-07-29T02:02:10.036Z,180.02
2022-07-29T02:03:09.991Z,172.75
2022-07-29T02:04:10.111Z,174.55
2022-07-29T02:05:10.262Z,170.80
2022-07-29T02:06:10.397Z,171.68
2022-07-29T02:07:10.438Z,166.21
2022-07-29T02:08:10.530Z,166.04
2022-07-29T02:09:10.658Z,163.60
2022-07-29T02:10:10.799Z,162.96
2022-07-29T02:11:11.025Z,167.71
2022-07-29T02:12:11.057Z,172.04
2022-07-29T02:13:11.339Z,173.83
2022-07-29T02:14:11.338Z,180.02
2022-07-29T02:15:11.556Z,181.78
2022-07-29T02:16:11.656Z,180.40
2022-07-29T02:17:11.715Z,177.34
2022-07-29T02:18:11.883Z,172.21
2022-07-29T02:19:11.952Z,170.11
2022-07-29T02:20:12.025Z,162.80
2022-07-29T02:21:15.101Z,165.22
2022-07-29T02:22:12.246Z,163.60
2022-07-29T02:23:12.416Z,166.04
2022-07-29T02:24:12.793Z,171.86
2022-07-29T02:25:14.133Z,171.51
2022-07-29T02:26:12.706Z,171.51
2022-07-29T02:27:12.835Z,172.57
2022-07-29T02:28:13.000Z,175.47
2022-07-29T02:29:13.159Z,170.45
2022-07-29T02:30:13.214Z,167.88
2022-07-29T02:31:13.370Z,167.38
2022-07-29T02:32:13.445Z,165.39
2022-07-29T02:33:13.687Z,164.73
2022-07-29T02:34:14.043Z,164.09
2022-07-29T02:35:14.804Z,162.17
2022-07-29T02:36:13.931Z,159.99
2022-07-29T02:37:14.033Z,161.08
2022-07-29T02:38:14.135Z,164.57
2022-07-29T02:39:14.276Z,167.38
2022-07-29T02:40:14.353Z,170.28
2022-07-29T02:41:14.513Z,172.04
2022-07-29T02:42:14.643Z,168.90
2022-07-29T02:43:14.892Z,166.38
2022-07-29T02:44:15.350Z,165.55
2022-07-29T02:45:15.049Z,164.41
2022-07-29T02:46:29.507Z,161.70
2022-07-29T02:47:16.242Z,160.92
2022-07-29T02:48:15.389Z,166.04
2022-07-29T02:49:15.740Z,171.15
2022-07-29T02:50:15.640Z,179.43
2022-07-29T02:51:43.811Z,185.83
2022-07-29T02:52:16.859Z,189.48
2022-07-29T02:53:15.968Z,190.47
2022-07-29T02:54:16.690Z,192.60
2022-07-29T02:55:16.251Z,193.73
2022-07-29T02:56:16.377Z,188.29
2022-07-29T02:57:16.504Z,184.80
2022-07-29T02:58:16.590Z,178.67
2022-07-29T02:59:16.924Z,174.37
2022-07-29T03:00:16.890Z,170.80
2022-07-29T03:01:21.590Z,166.88
2022-07-29T03:02:18.170Z,164.41
2022-07-29T03:03:17.231Z,161.54
2022-07-29T03:04:17.902Z,158.63
2022-07-29T03:05:17.608Z,156.40
2022-07-29T03:06:30.974Z,153.80
2022-07-29T03:07:18.783Z,152.26
2022-07-29T03:08:17.920Z,149.93
2022-07-29T03:09:18.137Z,148.73
2022-07-29T03:10:18.228Z,146.77
2022-07-29T03:11:18.278Z,145.74
2022-07-29T03:12:18.368Z,143.61
2022-07-29T03:13:18.458Z,143.12
2022-07-29T03:14:19.218Z,142.63
2022-07-29T03:15:18.746Z,143.49
2022-07-29T03:16:18.917Z,141.54
2022-07-29T03:17:18.968Z,141.90
2022-07-29T03:18:19.113Z,140.82
2022-07-29T03:19:19.377Z,141.90
2022-07-29T03:20:19.409Z,141.06
2022-07-29T03:21:19.435Z,140.35
2022-07-29T03:22:19.586Z,141.30
2022-07-29T03:23:19.685Z,139.88
2022-07-29T03:24:19.936Z,139.18
2022-07-29T03:25:20.096Z,139.41
2022-07-29T03:26:20.048Z,138.71
2022-07-29T03:27:20.125Z,136.78
2022-07-29T03:28:20.265Z,133.29
2022-07-29T03:29:20.408Z,132.02
2022-07-29T03:30:21.988Z,131.09
2022-07-29T03:31:20.705Z,128.07
2022-07-29T03:32:23.892Z,126.80
2022-07-29T03:33:20.892Z,129.16
2022-07-29T03:34:21.023Z,130.17
2022-07-29T03:35:21.293Z,132.12
2022-07-29T03:36:21.272Z,133.29
2022-07-29T03:37:21.402Z,133.82
2022-07-29T03:38:21.556Z,134.14
2022-07-29T03:39:21.663Z,133.71
2022-07-29T03:40:21.842Z,132.65
2022-07-29T03:41:22.542Z,132.54
2022-07-29T03:42:22.032Z,130.88
2022-07-29T03:43:22.184Z,124.25
2022-07-29T03:44:22.282Z,122.79
2022-07-29T03:45:23.112Z,122.70
2022-07-29T03:46:22.657Z,120.49
2022-07-29T03:47:22.670Z,120.14
2022-07-29T03:48:22.791Z,120.57
2022-07-29T03:49:22.993Z,120.40
2022-07-29T03:50:23.619Z,119.11
2022-07-29T03:51:34.049Z,119.28
2022-07-29T03:52:24.311Z,121.01
2022-07-29T03:53:23.411Z,119.54
2022-07-29T03:54:23.499Z,120.49
2022-07-29T03:55:23.589Z,122.79
2022-07-29T03:56:23.808Z,124.25
2022-07-29T03:57:23.862Z,124.35
2022-07-29T03:58:23.979Z,124.25
2022-07-29T03:59:24.071Z,124.35
2022-07-29T04:00:24.239Z,123.70
2022-07-29T04:01:24.390Z,122.61
2022-07-29T04:02:30.215Z,118.52
2022-07-29T04:03:25.700Z,114.69
2022-07-29T04:04:24.718Z,113.29
2022-07-29T04:05:25.031Z,110.59
2022-07-29T04:06:24.948Z,109.00
2022-07-29T04:07:25.088Z,109.64
2022-07-29T04:08:25.186Z,109.28
2022-07-29T04:09:25.347Z,106.36
2022-07-29T04:10:30.367Z,105.68
2022-07-29T04:11:26.547Z,105.55
2022-07-29T04:12:25.665Z,105.35
2022-07-29T04:13:25.830Z,106.70
2022-07-29T04:14:25.978Z,108.29
2022-07-29T04:15:26.238Z,108.15
2022-07-29T04:16:27.406Z,109.57
2022-07-29T04:17:26.306Z,110.44
2022-07-29T04:18:26.466Z,110.44
2022-07-29T04:19:26.590Z,106.43
2022-07-29T04:20:26.678Z,100.83
2022-07-29T04:21:26.815Z,99.63
2022-07-29T04:22:27.150Z,100.04
2022-07-29T04:23:27.076Z,100.83
2022-07-29T04:24:27.225Z,103.26
2022-07-29T04:25:27.324Z,105.08
2022-07-29T04:26:27.434Z,105.48
2022-07-29T04:27:27.635Z,107.25
2022-07-29T04:28:27.612Z,108.71
2022-07-29T04:29:27.745Z,110.95
2022-07-29T04:30:27.914Z,112.90
2022-07-29T04:31:28.258Z,109.79
2022-07-29T04:32:28.294Z,104.43
2022-07-29T04:33:28.368Z,100.35
2022-07-29T04:34:28.441Z,97.13
2022-07-29T04:35:28.512Z,98.33
2022-07-29T04:36:29.943Z,96.74
2022-07-29T04:37:28.922Z,95.68
2022-07-29T04:38:28.872Z,94.33
2022-07-29T04:39:30.449Z,93.82
2022-07-29T04:40:29.153Z,90.86
2022-07-29T04:41:33.175Z,89.02
2022-07-29T04:42:29.796Z,87.43
2022-07-29T04:43:29.548Z,90.56
2022-07-29T04:44:30.692Z,90.76
2022-07-29T04:45:30.862Z,92.88
2022-07-29T04:46:30.063Z,93.40
2022-07-29T04:47:30.230Z,93.82
2022-07-29T04:48:30.258Z,95.10
2022-07-29T04:49:30.432Z,94.67
2022-07-29T04:50:30.498Z,94.35
2022-07-29T04:51:30.641Z,94.35
2022-07-29T04:52:30.901Z,95.76
2022-07-29T04:53:30.898Z,95.54
2022-07-29T04:54:31.040Z,94.57
2022-07-29T04:55:31.197Z,93.19
2022-07-29T04:56:31.308Z,90.17
2022-07-29T04:57:31.582Z,87.98
2022-07-29T04:58:31.574Z,85.20
2022-07-29T04:59:31.698Z,81.78
2022-07-29T05:00:33.595Z,76.88
2022-07-29T05:01:32.027Z,73.82
2022-07-29T05:02:32.331Z,72.35
2022-07-29T05:03:32.277Z,71.60
2022-07-29T05:04:32.358Z,70.21
2022-07-29T05:05:32.489Z,68.32
2022-07-29T05:06:32.649Z,67.16
2022-07-29T05:07:32.916Z,65.73
2022-07-29T05:08:32.917Z,64.51
2022-07-29T05:09:33.017Z,63.24
2022-07-29T05:10:33.119Z,62.72
2022-07-29T05:11:33.268Z,64.02
2022-07-29T05:12:33.578Z,65.53
2022-07-29T05:13:45.993Z,64.86
2022-07-29T05:14:34.655Z,64.66
2022-07-29T05:15:33.888Z,64.12
2022-07-29T05:16:33.915Z,63.77
2022-07-29T05:17:34.114Z,62.77
2022-07-29T05:18:34.128Z,62.67
2022-07-29T05:19:34.275Z,63.48
2022-07-29T05:20:35.389Z,63.19
2022-07-29T05:21:34.505Z,63.97
2022-07-29T05:22:35.725Z,65.32
2022-07-29T05:23:34.789Z,67.00
2022-07-29T05:24:34.892Z,67.32
2022-07-29T05:25:40.743Z,66.84
2022-07-29T05:26:36.111Z,66.89
2022-07-29T05:27:35.301Z,67.27
2022-07-29T05:28:35.394Z,67.27
2022-07-29T05:29:44.297Z,67.22
2022-07-29T05:30:36.647Z,65.79
2022-07-29T05:31:35.762Z,63.77
2022-07-29T05:32:36.033Z,64.76
2022-07-29T05:33:37.043Z,65.02
2022-07-29T05:34:36.173Z,64.66
2022-07-29T05:35:36.330Z,65.27
2022-07-29T05:36:36.442Z,66.68
2022-07-29T05:37:36.674Z,67.22
2022-07-29T05:38:36.851Z,66.47
2022-07-29T05:39:47.360Z,65.94
2022-07-29T05:40:37.919Z,65.27
2022-07-29T05:41:37.032Z,65.12
2022-07-29T05:42:37.313Z,65.58
2022-07-29T05:43:37.281Z,67.71
2022-07-29T05:44:37.410Z,69.51
2022-07-29T05:45:49.816Z,71.29
2022-07-29T05:46:38.796Z,73.62
2022-07-29T05:47:37.851Z,77.59
2022-07-29T05:48:37.973Z,78.91
2022-07-29T05:49:38.169Z,80.43
2022-07-29T05:50:38.191Z,80.82
2022-07-29T05:51:39.297Z,79.36
2022-07-29T05:52:38.741Z,79.51
2022-07-29T05:53:38.567Z,80.67
2022-07-29T05:54:38.704Z,81.38
2022-07-29T05:55:38.849Z,83.75
2022-07-29T05:56:38.977Z,82.58
2022-07-29T05:57:39.169Z,83.33
2022-07-29T05:58:39.434Z,86.08
2022-07-29T05:59:39.400Z,88.92
2022-07-29T06:00:39.544Z,90.37
2022-07-29T06:01:39.717Z,89.69
2022-07-29T06:02:40.002Z,88.64
2022-07-29T06:03:40.097Z,90.27
2022-07-29T06:04:40.119Z,91.26
2022-07-29T06:05:40.221Z,91.56
2022-07-29T06:06:40.346Z,90.66
2022-07-29T06:07:40.652Z,93.30
2022-07-29T06:08:41.616Z,92.37
2022-07-29T06:09:40.764Z,92.47
2022-07-29T06:10:40.886Z,92.47
2022-07-29T06:11:40.986Z,94.57
2022-07-29T06:12:41.188Z,95.47
2022-07-29T06:13:41.271Z,96.29
2022-07-29T06:14:41.338Z,98.05
2022-07-29T06:15:41.532Z,100.53
2022-07-29T06:16:41.608Z,105.42
2022-07-29T06:17:59.907Z,106.70
2022-07-29T06:18:42.866Z,111.10
2022-07-29T06:19:41.947Z,113.37
2022-07-29T06:20:42.078Z,113.44
2022-07-29T06:21:42.252Z,110.15
2022-07-29T06:22:42.303Z,110.07
2022-07-29T06:23:42.467Z,110.88
2022-07-29T06:24:42.503Z,108.15
2022-07-29T06:25:42.666Z,111.25
2022-07-29T06:26:42.764Z,114.14
2022-07-29T06:27:42.863Z,117.77
2022-07-29T06:28:43.024Z,119.28
2022-07-29T06:29:43.072Z,121.72
2022-07-29T06:30:43.305Z,119.79
2022-07-29T06:31:43.362Z,120.31
2022-07-29T06:32:43.605Z,117.85
2022-07-29T06:33:43.692Z,109.43
2022-07-29T06:34:43.805Z,101.69
2022-07-29T06:35:46.626Z,101.94
2022-07-29T06:36:45.042Z,101.20
2022-07-29T06:37:44.162Z,101.69
2022-07-29T06:38:49.167Z,103.97
2022-07-29T06:39:45.423Z,104.75
2022-07-29T06:40:44.512Z,106.22
2022-07-29T06:41:44.621Z,101.88
2022-07-29T06:42:44.754Z,105.75
2022-07-29T06:43:52.139Z,107.94
2022-07-29T06:44:46.026Z,109.43
2022-07-29T06:45:45.178Z,113.60
2022-07-29T06:46:45.309Z,116.78
2022-07-29T06:47:45.409Z,119.88
2022-07-29T06:48:45.687Z,121.01
2022-07-29T06:49:45.649Z,125.00
2022-07-29T06:50:45.789Z,128.27
2022-07-29T06:51:45.939Z,131.09
2022-07-29T06:52:46.119Z,134.04
2022-07-29T06:53:59.791Z,138.71
2022-07-29T06:54:47.419Z,142.51
2022-07-29T06:55:46.458Z,146.51
2022-07-29T06:56:46.548Z,151.84
2022-07-29T06:57:46.698Z,149.13
2022-07-29T06:58:46.848Z,139.29
2022-07-29T06:59:46.929Z,135.12
2022-07-29T07:00:47.105Z,134.36
2022-07-29T07:01:47.301Z,130.07
2022-07-29T07:02:47.492Z,130.37
2022-07-29T07:03:47.526Z,132.34
2022-07-29T07:04:47.567Z,131.19
2022-07-29T07:05:47.717Z,132.86
2022-07-29T07:06:47.820Z,137.23
2022-07-29T07:07:47.925Z,136.45
2022-07-29T07:08:48.097Z,138.49
2022-07-29T07:09:48.235Z,139.41
2022-07-29T07:10:48.305Z,137.91
2022-07-29T07:11:49.536Z,136.90
2022-07-29T07:12:48.554Z,132.86
2022-07-29T07:13:48.705Z,130.57
2022-07-29T07:14:48.756Z,131.71
2022-07-29T07:15:48.864Z,131.19
2022-07-29T07:16:49.169Z,135.78
2022-07-29T07:17:49.094Z,131.09
2022-07-29T07:18:49.274Z,133.61
2022-07-29T07:19:49.354Z,133.29
2022-07-29T07:20:49.474Z,132.97
2022-07-29T07:21:49.742Z,133.18
2022-07-29T07:22:49.738Z,138.95
2022-07-29T07:23:49.845Z,143.86
2022-07-29T07:24:49.961Z,144.98
2022-07-29T07:25:50.070Z,145.62
2022-07-29T07:26:50.341Z,148.33
2022-07-29T07:27:50.301Z,149.26
2022-07-29T07:28:50.394Z,154.80
2022-07-29T07:29:50.592Z,158.32
2022-07-29T07:30:50.692Z,157.13
2022-07-29T07:31:50.839Z,158.02
2022-07-29T07:32:50.937Z,160.46
2022-07-29T07:33:51.080Z,161.70
2022-07-29T07:34:51.404Z,165.88
2022-07-29T07:35:51.373Z,164.73
2022-07-29T07:36:51.483Z,167.71
2022-07-29T07:37:51.592Z,170.45
2022-07-29T07:38:51.691Z,168.39
2022-07-29T07:39:51.921Z,164.41
2022-07-29T07:40:51.924Z,161.08
2022-07-29T07:41:52.022Z,169.42
2022-07-29T07:42:52.131Z,176.21
2022-07-29T07:43:52.262Z,176.59
2022-07-29T07:45:12.485Z,177.53
2022-07-29T07:45:53.563Z,181.78
2022-07-29T07:46:52.610Z,182.78
2022-07-29T07:47:52.731Z,186.04
2022-07-29T07:48:52.899Z,194.42
2022-07-29T07:49:53.090Z,205.12
2022-07-29T07:50:54.060Z,212.97
2022-07-29T07:51:53.230Z,215.35
2022-07-29T07:52:53.353Z,215.35
2022-07-29T07:53:53.461Z,221.01
2022-07-29T07:54:53.750Z,210.11
2022-07-29T07:56:09.890Z,197.70
2022-07-29T07:56:54.890Z,189.04
2022-07-29T07:57:53.969Z,196.52
2022-07-29T07:58:54.090Z,204.86
2022-07-29T07:59:54.241Z,219.09
2022-07-29T08:00:54.334Z,233.43
2022-07-29T08:01:56.111Z,241.32
2022-07-29T08:02:54.537Z,237.14
2022-07-29T08:03:54.711Z,239.91
2022-07-29T08:04:54.760Z,245.11
2022-07-29T08:05:54.899Z,241.68
2022-07-29T08:06:55.001Z,247.51
2022-07-29T08:07:55.168Z,264.68
2022-07-29T08:08:56.432Z,276.27
2022-07-29T08:09:55.389Z,271.25
2022-07-29T08:10:55.578Z,257.21
2022-07-29T08:11:55.649Z,252.85
2022-07-29T08:12:55.760Z,262.78
2022-07-29T08:13:55.871Z,270.35
2022-07-29T08:14:55.965Z,276.97
2022-07-29T08:15:56.220Z,280.29
2022-07-29T08:16:56.360Z,286.90
2022-07-29T08:17:56.375Z,300.57
2022-07-29T08:18:56.490Z,309.06
2022-07-29T08:19:56.587Z,312.60
2022-07-29T08:20:56.827Z,314.39
2022-07-29T08:21:56.889Z,315.30
2022-07-29T08:22:57.002Z,313.49
2022-07-29T08:24:00.781Z,312.30
2022-07-29T08:24:58.221Z,307.04
2022-07-29T08:25:57.548Z,305.32
2022-07-29T08:26:57.496Z,292.01
2022-07-29T08:27:57.613Z,292.01
2022-07-29T08:28:57.732Z,301.12
2022-07-29T08:29:57.827Z,302.23
2022-07-29T08:30:58.097Z,309.64
2022-07-29T08:31:58.290Z,300.57
2022-07-29T08:32:58.289Z,316.52
2022-07-29T08:33:58.347Z,319.91
2022-07-29T08:34:58.478Z,321.16
2022-07-29T08:35:58.599Z,319.29
2022-07-29T08:36:58.719Z,315.90
2022-07-29T08:37:59.013Z,311.11
2022-07-29T08:38:58.976Z,304.76
2022-07-29T08:39:59.087Z,303.35
2022-07-29T08:40:59.406Z,292.79
2022-07-29T08:41:59.434Z,279.09
2022-07-29T08:42:59.407Z,276.27
2022-07-29T08:43:59.566Z,271.70
2022-07-29T08:44:59.658Z,261.31
2022-07-29T08:45:59.924Z,251.30
2022-07-29T08:47:00.055Z,250.73
2022-07-29T08:48:00.068Z,249.58
2022-07-29T08:49:00.256Z,240.79
2022-07-29T08:50:00.295Z,241.68
2022-07-29T08:51:00.616Z,242.57
2022-07-29T08:52:00.563Z,241.50
2022-07-29T08:53:00.656Z,242.39
2022-07-29T08:54:00.753Z,242.04
2022-07-29T08:55:00.964Z,236.79
2022-07-29T08:56:01.145Z,233.76
2022-07-29T08:57:01.423Z,230.80
2022-07-29T08:58:01.264Z,225.72
2022-07-29T08:59:01.356Z,230.15
2022-07-29T09:00:06.478Z,229.51
2022-07-29T09:01:02.783Z,221.75
2022-07-29T09:02:01.827Z,223.87
2022-07-29T09:03:01.915Z,227.44
2022-07-29T09:04:02.065Z,224.48
2022-07-29T09:05:02.161Z,218.36
2022-07-29T09:06:02.264Z,219.09
2022-07-29T09:07:02.574Z,210.24
2022-07-29T09:08:02.632Z,212.56
2022-07-29T09:09:02.566Z,210.92
2022-07-29T09:10:02.739Z,208.90
2022-07-29T09:11:03.801Z,207.85
2022-07-29T09:12:03.134Z,202.83
2022-07-29T09:13:03.064Z,211.74
2022-07-29T09:14:03.201Z,216.20
2022-07-29T09:15:03.314Z,214.22
2022-07-29T09:16:08.571Z,219.82
2022-07-29T09:17:04.942Z,227.60
2022-07-29T09:18:03.762Z,228.23
2022-07-29T09:19:03.804Z,230.96
2022-07-29T09:20:03.917Z,240.44
2022-07-29T09:21:04.031Z,248.45
2022-07-29T09:22:04.301Z,253.24
2022-07-29T09:23:04.224Z,251.30
2022-07-29T09:24:04.340Z,247.14
2022-07-29T09:25:04.482Z,246.40
2022-07-29T09:26:04.692Z,249.01
2022-07-29T09:27:04.724Z,251.69
2022-07-29T09:28:04.841Z,250.15
2022-07-29T09:29:04.942Z,249.96
2022-07-29T09:30:05.056Z,237.48
2022-07-29T09:31:05.184Z,240.62
2022-07-29T09:32:05.344Z,233.09
2022-07-29T09:33:05.473Z,236.79
2022-07-29T09:34:05.561Z,249.20
2022-07-29T09:35:05.661Z,250.35
2022-07-29T09:36:06.037Z,260.89
2022-07-29T09:37:05.931Z,269.91
2022-07-29T09:38:06.031Z,268.58
2022-07-29T09:39:06.137Z,249.58
2022-07-29T09:40:11.489Z,258.43
2022-07-29T09:41:07.400Z,262.78
2022-07-29T09:42:06.509Z,269.02
2022-07-29T09:43:06.689Z,264.90
2022-07-29T09:44:06.731Z,252.66
2022-07-29T09:45:06.829Z,242.93
2022-07-29T09:46:10.307Z,269.24
2022-07-29T09:47:08.207Z,279.81
2022-07-29T09:48:07.382Z,285.65
2022-07-29T09:49:07.398Z,280.76
2022-07-29T09:50:07.471Z,275.35
2022-07-29T09:51:07.640Z,288.67
2022-07-29T09:52:07.841Z,308.48
2022-07-29T09:53:07.829Z,315.60
2022-07-29T09:54:08.050Z,324.98
2022-07-29T09:55:08.094Z,324.98
2022-07-29T09:56:08.240Z,326.27
2022-07-29T09:57:08.430Z,324.98
2022-07-29T09:58:08.701Z,324.02
2022-07-29T09:59:08.589Z,321.16
2022-07-29T10:00:08.690Z,313.79
2022-07-29T10:01:08.875Z,314.39
2022-07-29T10:02:08.889Z,305.61
2022-07-29T10:03:09.360Z,299.74
2022-07-29T10:04:09.287Z,298.65
2022-07-29T10:05:09.279Z,317.43
2022-07-29T10:06:09.399Z,335.27
2022-07-29T10:07:09.494Z,334.93
2022-07-29T10:08:09.669Z,341.55
2022-07-29T10:09:09.779Z,315.30
2022-07-29T10:10:09.869Z,310.82
2022-07-29T10:11:10.027Z,315.60
2022-07-29T10:12:10.191Z,311.41
2022-07-29T10:13:15.186Z,309.35
2022-07-29T10:14:11.398Z,307.04
2022-07-29T10:15:10.529Z,284.17
2022-07-29T10:16:10.747Z,282.46
2022-07-29T10:17:10.819Z,301.40
2022-07-29T10:18:11.039Z,303.91
2022-07-29T10:19:11.189Z,300.57
2022-07-29T10:20:16.112Z,296.76
2022-07-29T10:21:35.216Z,310.82
2022-07-29T10:22:12.499Z,320.22
2022-07-29T10:23:11.748Z,326.27
2022-07-29T10:24:14.807Z,322.42
2022-07-29T10:25:11.888Z,310.23
2022-07-29T10:26:11.998Z,294.89
2022-07-29T10:27:12.089Z,297.03
2022-07-29T10:28:16.231Z,294.63
2022-07-29T10:29:12.408Z,294.89
2022-07-29T10:30:12.490Z,287.66
2022-07-29T10:31:12.632Z,278.38
2022-07-29T10:32:12.706Z,275.58
2022-07-29T10:33:12.977Z,289.94
2022-07-29T10:34:12.982Z,292.53
2022-07-29T10:35:13.088Z,300.84
2022-07-29T10:36:13.206Z,301.40
2022-07-29T10:37:13.296Z,304.47
2022-07-29T10:38:16.537Z,294.10
2022-07-29T10:39:15.551Z,305.61
2022-07-29T10:40:13.709Z,299.47
2022-07-29T10:41:13.756Z,321.79
2022-07-29T10:42:16.934Z,341.91
2022-07-29T10:43:15.096Z,360.70
2022-07-29T10:44:17.175Z,368.81
2022-07-29T10:45:14.249Z,373.86
2022-07-29T10:46:14.433Z,382.80
2022-07-29T10:47:14.525Z,385.01
2022-07-29T10:48:14.905Z,371.32
2022-07-29T10:49:15.282Z,375.14
2022-07-29T10:50:17.290Z,382.14
2022-07-29T10:51:14.994Z,389.05
2022-07-29T10:52:15.134Z,387.47
2022-07-29T10:53:15.205Z,384.79
2022-07-29T10:54:15.365Z,377.73
2022-07-29T10:55:15.449Z,388.82
2022-07-29T10:56:16.139Z,390.65
2022-07-29T10:57:15.843Z,375.14
2022-07-29T10:58:15.850Z,365.53
2022-07-29T10:59:15.963Z,341.91
2022-07-29T11:00:16.961Z,347.34
2022-07-29T11:01:16.295Z,376.43
2022-07-29T11:02:40.855Z,391.56
2022-07-29T11:03:17.687Z,403.16
2022-07-29T11:04:16.602Z,390.42
2022-07-29T11:05:16.745Z,406.36
2022-07-29T11:06:17.040Z,423.12
2022-07-29T11:07:17.040Z,407.35
2022-07-29T11:08:19.476Z,400.50
2022-07-29T11:09:17.350Z,413.15
2022-07-29T11:10:17.470Z,426.09
2022-07-29T11:11:17.819Z,413.92
2022-07-29T11:12:17.732Z,421.25
2022-07-29T11:13:17.931Z,454.86
2022-07-29T11:14:17.950Z,504.03
2022-07-29T11:15:18.060Z,507.87
2022-07-29T11:16:20.214Z,484.97
2022-07-29T11:17:18.263Z,466.97
2022-07-29T11:18:18.442Z,445.74
2022-07-29T11:19:26.281Z,445.15
2022-07-29T11:20:19.639Z,457.67
2022-07-29T11:21:18.783Z,451.17
2022-07-29T11:22:18.850Z,449.05
2022-07-29T11:23:19.988Z,456.42
2022-07-29T11:24:28.728Z,468.61
2022-07-29T11:25:50.949Z,486.03
2022-07-29T11:26:20.378Z,499.13
2022-07-29T11:27:20.185Z,503.65
2022-07-29T11:28:22.747Z,512.95
2022-07-29T11:29:20.847Z,522.60
2022-07-29T11:30:19.842Z,515.33
2022-07-29T11:31:20.977Z,500.62
2022-07-29T11:32:23.394Z,508.64
2022-07-29T11:33:20.376Z,508.64
2022-07-29T11:34:21.377Z,499.87
2022-07-29T11:35:36.752Z,524.65
2022-07-29T11:37:25.673Z,568.48
2022-07-29T11:38:21.947Z,589.60
2022-07-29T11:39:21.014Z,614.03
2022-07-29T11:40:21.406Z,606.21
2022-07-29T11:41:21.256Z,591.16
2022-07-29T11:42:32.459Z,602.92
2022-07-29T11:43:22.603Z,612.90
2022-07-29T11:44:21.794Z,605.66
2022-07-29T11:47:23.009Z,606.76
2022-07-29T11:48:28.774Z,608.42
2022-07-29T11:49:32.325Z,618.58
2022-07-29T11:50:23.404Z,621.47
2022-07-29T11:52:23.668Z,606.21
2022-07-29T11:53:22.907Z,576.35
2022-07-29T11:54:27.618Z,570.43
2022-07-29T11:55:23.952Z,582.39
2022-07-29T11:56:25.757Z,605.66
2022-07-29T11:57:36.035Z,615.16
2022-07-29T11:58:25.213Z,614.59
2022-07-29T11:59:23.439Z,613.46
2022-07-29T12:00:24.572Z,592.21
2022-07-29T12:01:23.711Z,599.13
2022-07-29T12:02:37.066Z,591.69
2022-07-29T12:03:35.065Z,613.46
2022-07-29T12:04:25.359Z,618.58
2022-07-29T12:05:36.244Z,625.55
2022-07-29T12:06:25.321Z,623.79
2022-07-29T12:07:02.021Z,614.59
2022-07-29T12:07:24.448Z,626.72
2022-07-29T12:08:25.621Z,613.46
2022-07-29T12:09:24.719Z,625.55
2022-07-29T12:10:29.824Z,622.63
2022-07-29T12:11:25.940Z,611.77
2022-07-29T12:12:25.041Z,608.98
2022-07-29T12:13:37.875Z,606.76
2022-07-29T12:14:26.427Z,608.98
2022-07-29T12:15:46.375Z,606.21
2022-07-29T12:16:29.743Z,604.56
2022-07-29T12:17:25.687Z,577.34
2022-07-29T12:18:26.807Z,547.03
2022-07-29T12:19:25.973Z,553.85
2022-07-29T12:20:26.078Z,578.85
2022-07-29T12:21:26.208Z,585.45
2022-07-29T12:22:26.308Z,612.90
2022-07-29T12:23:29.441Z,600.21
2022-07-29T12:24:27.605Z,593.27
2022-07-29T12:25:34.673Z,596.98
2022-07-29T12:26:27.882Z,599.67
2022-07-29T12:27:29.567Z,601.83
2022-07-29T12:28:27.738Z,607.87
2022-07-29T12:29:34.701Z,615.16
2022-07-29T12:30:28.346Z,601.29
2022-07-29T12:31:42.240Z,605.11
2022-07-29T12:32:28.628Z,610.09
2022-07-29T12:33:27.676Z,606.76
2022-07-29T12:34:27.837Z,599.67
2022-07-29T12:35:27.937Z,592.74
2022-07-29T12:36:28.167Z,580.36